Birgit G. — V2QD5 — position and weather

sailwx.info

Track history (hours):
 
Tides and Currents Weather Stations Pressure Air Temp Water Temp Dewpoint Dewpoint Depression Visibility Wind Speed Wind Dir Waves Ship Positions

Birgit G.

Last reported at 2018-Jul-21 22:59 UTC. Time now 2018-Jul-21 22:57 UTC.
Position N 51°53' E 004°16'.

Length 89 m; draft 3.5 m.

Type: Ship. MMSI: 305502000.

Date/timePositionNaut miles runAvg speedWind from/ knotsBaromVisibWave heightAir tempDewpointWater temp
2018-Jul-21 22:59N 51°53' E 004°16'0 0.0
2018-Jul-21 22:26N 51°53' E 004°16'0 0.0
2018-Jul-21 21:59N 51°53' E 004°16'0 0.0
2018-Jul-21 21:29N 51°53' E 004°16'0 0.0
2018-Jul-21 20:59N 51°53' E 004°16'0 0.0
2018-Jul-21 20:29N 51°53' E 004°16'0 0.0
2018-Jul-21 19:59N 51°53' E 004°16'0 0.0
2018-Jul-21 19:29N 51°53' E 004°16'0 0.0
2018-Jul-21 18:59N 51°53' E 004°16'0 0.0
2018-Jul-21 18:29N 51°53' E 004°16'0 0.0
2018-Jul-21 17:59N 51°53' E 004°16'0 0.0
2018-Jul-21 17:29N 51°53' E 004°16'0 0.0
2018-Jul-21 16:59N 51°53' E 004°16'0 0.0
2018-Jul-21 16:29N 51°53' E 004°16'0 0.0
2018-Jul-21 15:59N 51°53' E 004°16'0 0.0
2018-Jul-21 15:29N 51°53' E 004°16'0 0.0
2018-Jul-21 14:59N 51°53' E 004°16'0 0.0
2018-Jul-21 14:30N 51°53' E 004°16'5 5.5
2018-Jul-21 13:30N 51°51' E 004°24'510.1
2018-Jul-21 13:00N 51°50' E 004°32'4 7.9
2018-Jul-21 12:30N 51°48' E 004°38'0 0.7
2018-Jul-21 12:00N 51°48' E 004°38'0 0.0
2018-Jul-21 11:30N 51°48' E 004°38'0 0.0
2018-Jul-21 11:00N 51°48' E 004°38'0 0.0
2018-Jul-21 10:30N 51°48' E 004°38'0 0.0
2018-Jul-21 10:00N 51°48' E 004°38'0 0.0
2018-Jul-21 09:30N 51°48' E 004°38'0 0.0
2018-Jul-21 09:00N 51°48' E 004°38'0 0.0
2018-Jul-21 08:30N 51°48' E 004°38'0 0.0
2018-Jul-21 08:00N 51°48' E 004°38'0 0.0
2018-Jul-21 07:30N 51°48' E 004°38'0 0.0
2018-Jul-21 07:00N 51°48' E 004°38'0 0.0
2018-Jul-21 06:30N 51°48' E 004°38'0 0.0
2018-Jul-21 06:00N 51°48' E 004°38'0 0.0
2018-Jul-21 05:30N 51°48' E 004°38'0 0.0
2018-Jul-21 05:00N 51°48' E 004°38'0 0.0
2018-Jul-21 04:30N 51°48' E 004°38'0 0.0
2018-Jul-21 04:00N 51°48' E 004°38'0 0.0
2018-Jul-21 03:30N 51°48' E 004°38'0 0.0
2018-Jul-21 03:00N 51°48' E 004°38'0 0.0
2018-Jul-21 02:30N 51°48' E 004°38'0 0.0
2018-Jul-21 02:00N 51°48' E 004°38'0 0.0
2018-Jul-21 01:30N 51°48' E 004°38'2 3.1
2018-Jul-21 01:00N 51°48' E 004°36'4 7.8
2018-Jul-21 00:30N 51°50' E 004°30'4 8.9
2018-Jul-21 00:00N 51°50' E 004°23'4 8.4
2018-Jul-20 23:30N 51°54' E 004°19'4 8.9
2018-Jul-20 23:00N 51°56' E 004°13'5 9.6
2018-Jul-20 22:30N 51°59' E 004°06'5 9.7
2018-Jul-20 22:00N 51°60' E 003°59'510.7
2018-Jul-20 21:30N 52°01' E 003°50'4 8.2
2018-Jul-20 21:00N 52°05' E 003°47'4 9.0
2018-Jul-20 20:30N 52°09' E 003°45'1 1.8
2018-Jul-20 19:58N 52°10' E 003°44'0 0.0
2018-Jul-20 19:28N 52°10' E 003°44'0 0.1
2018-Jul-20 18:58N 52°10' E 003°44'0 0.2
2018-Jul-20 18:28N 52°10' E 003°44'0 0.1
2018-Jul-20 17:58N 52°10' E 003°44'0 0.0
2018-Jul-20 17:28N 52°10' E 003°44'0 0.0
2018-Jul-20 16:58N 52°10' E 003°44'0 0.0
2018-Jul-20 16:22N 52°10' E 003°44'0 0.0
2018-Jul-20 15:55N 52°10' E 003°44'0 0.0
2018-Jul-20 15:25N 52°10' E 003°44'0 0.6
2018-Jul-20 15:00N 52°10' E 003°44'5 9.6
2018-Jul-20 14:30N 52°15' E 003°46'611.4
2018-Jul-20 14:00N 52°21' E 003°48'611.3
2018-Jul-20 13:30N 52°26' E 003°50'510.9
2018-Jul-20 13:00N 52°31' E 003°52'510.7
2018-Jul-20 12:30N 52°37' E 003°54'510.2
2018-Jul-20 12:00N 52°42' E 003°55'5 9.9
2018-Jul-20 11:30N 52°46' E 003°57'5 9.6
2018-Jul-20 11:00N 52°51' E 003°58'5 9.2
2018-Jul-20 10:30N 52°56' E 003°59'5 8.9
2018-Jul-20 09:59N 52°59' E 004°05'5 9.0
2018-Jul-20 09:28N 53°02' E 004°11'5 8.8
2018-Jul-20 08:55N 53°05' E 004°17'4 9.2
2018-Jul-20 08:30N 53°08' E 004°21'5 9.3
2018-Jul-20 08:00N 53°11' E 004°27'610.0
2018-Jul-20 07:22N 53°17' E 004°30'510.6
2018-Jul-20 06:51N 53°22' E 004°33'410.9
2018-Jul-20 06:30N 53°26' E 004°36'610.7
2018-Jul-20 05:58N 53°29' E 004°44'511.3
2018-Jul-20 05:30N 53°31' E 004°52'611.3
2018-Jul-20 04:59N 53°33' E 005°02'511.1
2018-Jul-20 04:30N 53°35' E 005°10'611.2
2018-Jul-20 04:00N 53°37' E 005°19'510.8
2018-Jul-20 03:30N 53°39' E 005°28'510.2
2018-Jul-20 02:59N 53°40' E 005°36'510.0
2018-Jul-20 02:30N 53°42' E 005°43'5 9.7
2018-Jul-20 02:00N 53°44' E 005°51'5 9.5
2018-Jul-20 01:28N 53°45' E 005°59'15 9.5
2018-Jul-19 23:53N 53°50' E 006°23'4 9.1
2018-Jul-19 23:28N 53°50' E 006°30'510.0
2018-Jul-19 22:57N 53°52' E 006°38'1310.9
2018-Jul-19 21:44N 53°55' E 006°60'1511.5
2018-Jul-19 20:25N 53°59' E 007°25'511.8
2018-Jul-19 20:00N 53°60' E 007°33'611.7
2018-Jul-19 19:30N 54°01' E 007°42'611.7
2018-Jul-19 18:59N 54°01' E 007°53'611.9
2018-Jul-19 18:30N 54°01' E 008°03'611.8
2018-Jul-19 18:00N 54°01' E 008°13'611.7
2018-Jul-19 17:30N 53°60' E 008°22'510.9
2018-Jul-19 17:00N 53°58' E 008°31'5 9.4
2018-Jul-19 16:31N 53°57' E 008°39'4 8.2
2018-Jul-19 16:00N 53°53' E 008°43'4 7.9
2018-Jul-19 15:30N 53°51' E 008°47'4 7.7
2018-Jul-19 15:00N 53°51' E 008°54'4 7.7
2018-Jul-19 14:30N 53°51' E 009°00'9 9.1
2018-Jul-19 13:30N 53°53' E 009°16'611.3
2018-Jul-19 13:00N 53°49' E 009°22'612.0
2018-Jul-19 12:30N 53°43' E 009°28'5 9.1
2018-Jul-19 12:00N 53°39' E 009°31'0 0.0
2018-Jul-19 11:30N 53°39' E 009°31'0 0.0
2018-Jul-19 11:00N 53°39' E 009°31'0 0.0
2018-Jul-19 10:26N 53°39' E 009°31'0 0.0
2018-Jul-19 09:56N 53°39' E 009°31'0 0.0
2018-Jul-19 09:30N 53°39' E 009°31'0 0.0
2018-Jul-19 08:59N 53°39' E 009°31'0 0.0
2018-Jul-19 08:30N 53°39' E 009°31'0 0.0
2018-Jul-19 07:56N 53°39' E 009°31'0 0.0
2018-Jul-19 07:26N 53°39' E 009°31'0 0.0
2018-Jul-19 06:56N 53°39' E 009°31'0 0.0
2018-Jul-19 06:30N 53°39' E 009°31'0 0.0
2018-Jul-19 05:59N 53°39' E 009°31'0 0.0
2018-Jul-19 05:29N 53°39' E 009°31'0 0.0
2018-Jul-19 04:59N 53°39' E 009°31'0 0.0
2018-Jul-19 04:29N 53°39' E 009°31'0 0.0
2018-Jul-19 03:59N 53°39' E 009°31'0 0.0
2018-Jul-19 03:29N 53°39' E 009°31'0 0.0
2018-Jul-19 02:56N 53°39' E 009°31'0 0.0
2018-Jul-19 02:29N 53°39' E 009°31'0 0.0
2018-Jul-19 01:59N 53°39' E 009°31'0 0.0
2018-Jul-19 01:29N 53°39' E 009°31'0 0.0
2018-Jul-19 00:59N 53°39' E 009°31'0 0.0
2018-Jul-19 00:29N 53°39' E 009°31'0 0.0
2018-Jul-19 00:00N 53°39' E 009°31'0 0.0
2018-Jul-18 23:28N 53°39' E 009°31'0 0.7
2018-Jul-18 23:00N 53°40' E 009°31'3 6.0
2018-Jul-18 22:30N 53°42' E 009°29'5 9.1
2018-Jul-18 22:00N 53°46' E 009°24'4 8.7
2018-Jul-18 21:30N 53°50' E 009°21'4 8.4
2018-Jul-18 21:00N 53°52' E 009°15'3 5.7
2018-Jul-18 20:31N 53°53' E 009°11'0 0.0
2018-Jul-18 19:58N 53°53' E 009°11'0 0.0
2018-Jul-18 19:28N 53°53' E 009°11'0 0.0
2018-Jul-18 18:58N 53°53' E 009°11'0 0.0
2018-Jul-18 18:28N 53°53' E 009°11'0 0.0
2018-Jul-18 17:58N 53°53' E 009°11'0 0.0
2018-Jul-18 17:28N 53°53' E 009°11'0 0.0
2018-Jul-18 16:58N 53°53' E 009°11'0 0.0
2018-Jul-18 16:28N 53°53' E 009°11'0 0.0
2018-Jul-18 15:58N 53°53' E 009°11'0 0.0
2018-Jul-18 15:28N 53°53' E 009°11'0 0.0
2018-Jul-18 14:58N 53°53' E 009°11'0 0.0
2018-Jul-18 14:28N 53°53' E 009°11'0 0.0
2018-Jul-18 13:19N 53°53' E 009°11'0 0.0
2018-Jul-18 12:58N 53°53' E 009°11'0 0.0
2018-Jul-18 12:28N 53°53' E 009°11'0 0.0
2018-Jul-18 11:58N 53°53' E 009°11'0 0.0
2018-Jul-18 11:28N 53°53' E 009°11'0 0.0
2018-Jul-18 10:28N 53°53' E 009°11'0 0.0
2018-Jul-18 09:58N 53°53' E 009°11'0 0.0
2018-Jul-18 09:28N 53°53' E 009°11'0 0.0
2018-Jul-18 08:58N 53°53' E 009°11'0 0.0
2018-Jul-18 08:28N 53°53' E 009°11'0 0.0
2018-Jul-18 07:58N 53°53' E 009°11'0 0.0
2018-Jul-18 07:28N 53°53' E 009°11'0 0.0
2018-Jul-18 06:58N 53°53' E 009°11'0 0.0
2018-Jul-18 06:22N 53°53' E 009°11'0 0.0
2018-Jul-18 05:58N 53°53' E 009°11'0 0.0
2018-Jul-18 05:28N 53°53' E 009°11'0 0.0
2018-Jul-18 04:58N 53°53' E 009°11'0 0.0
2018-Jul-18 04:28N 53°53' E 009°11'0 0.0
2018-Jul-18 03:58N 53°53' E 009°11'0 0.0
2018-Jul-18 03:28N 53°53' E 009°11'0 0.5
2018-Jul-18 03:00N 53°53' E 009°11'2 2.9
2018-Jul-18 02:29N 53°53' E 009°09'0 0.0
2018-Jul-18 01:59N 53°53' E 009°09'0 0.0
2018-Jul-18 01:29N 53°53' E 009°09'0 0.0
2018-Jul-18 00:59N 53°53' E 009°09'0 0.2
2018-Jul-18 00:29N 53°53' E 009°08'0 0.1
2018-Jul-17 23:59N 53°53' E 009°08'0 0.0
2018-Jul-17 23:29N 53°53' E 009°08'0 0.0
2018-Jul-17 22:59N 53°53' E 009°08'0 0.0
2018-Jul-17 22:29N 53°53' E 009°08'0 0.0
2018-Jul-17 21:59N 53°53' E 009°08'0 0.0
2018-Jul-17 21:29N 53°53' E 009°08'0 0.1
2018-Jul-17 20:59N 53°53' E 009°08'0 0.1
2018-Jul-17 20:29N 53°53' E 009°08'0 0.1
2018-Jul-17 19:59N 53°53' E 009°08'0 0.0
2018-Jul-17 19:29N 53°53' E 009°08'0 0.0
2018-Jul-17 18:59N 53°53' E 009°08'0 0.1
2018-Jul-17 18:29N 53°53' E 009°08'2 3.4
2018-Jul-17 18:01N 53°52' E 009°06'5 9.4
2018-Jul-17 17:31N 53°51' E 008°58'510.1
2018-Jul-17 17:00N 53°50' E 008°50'5 9.5
2018-Jul-17 16:31N 53°53' E 008°43'5 9.2
2018-Jul-17 16:00N 53°57' E 008°38'5 9.5
2018-Jul-17 15:30N 53°58' E 008°31'5 9.9
2018-Jul-17 14:59N 53°59' E 008°22'5 9.9
2018-Jul-17 14:30N 53°59' E 008°14'510.0
2018-Jul-17 13:59N 53°59' E 008°06'510.3
2018-Jul-17 13:30N 54°02' E 007°58'510.5
2018-Jul-17 13:00N 54°04' E 007°51'610.8
2018-Jul-17 12:28N 54°06' E 007°42'198 9.4
2018-Jul-16 15:23N 57°19' E 006°21'411.1
2018-Jul-16 14:58N 57°24' E 006°18'1410.6
2018-Jul-16 13:39N 57°37' E 006°11'3 9.8
2018-Jul-16 13:18N 57°40' E 006°10'410.0
2018-Jul-16 12:52N 57°45' E 006°09'410.4
2018-Jul-16 12:30N 57°48' E 006°07'510.3
2018-Jul-16 12:00N 57°53' E 006°05'510.1
2018-Jul-16 11:30N 57°58' E 006°03'510.5
2018-Jul-16 11:00N 58°03' E 006°02'510.4
2018-Jul-16 10:31N 58°08' E 006°00'510.2
2018-Jul-16 10:00N 58°13' E 005°58'510.1
2018-Jul-16 09:30N 58°18' E 005°57'5 9.9
2018-Jul-16 09:00N 58°23' E 005°55'4 8.6
2018-Jul-16 08:30N 58°27' E 005°51'2 3.5
2018-Jul-16 08:00N 58°29' E 005°53'0 0.0
2018-Jul-16 07:29N 58°29' E 005°53'0 0.0
2018-Jul-16 07:00N 58°29' E 005°53'0 0.0
2018-Jul-16 06:30N 58°29' E 005°53'0 0.0
2018-Jul-16 06:00N 58°29' E 005°53'0 0.0
2018-Jul-16 05:30N 58°29' E 005°53'0 0.0
2018-Jul-16 05:00N 58°29' E 005°53'0 0.0
2018-Jul-16 04:30N 58°29' E 005°53'0 0.0
2018-Jul-16 04:00N 58°29' E 005°53'0 0.0
2018-Jul-16 03:27N 58°29' E 005°53'0 0.0
2018-Jul-16 03:00N 58°29' E 005°53'0 0.0
2018-Jul-16 02:30N 58°29' E 005°53'0 0.0
2018-Jul-16 02:00N 58°29' E 005°53'0 0.0
2018-Jul-16 01:30N 58°29' E 005°53'0 0.0
2018-Jul-16 01:00N 58°29' E 005°53'0 0.0
2018-Jul-16 00:27N 58°29' E 005°53'0 0.0
2018-Jul-16 00:00N 58°29' E 005°53'0 0.0
2018-Jul-15 23:27N 58°29' E 005°53'0 0.0
2018-Jul-15 22:57N 58°29' E 005°53'0 0.0
2018-Jul-15 22:30N 58°29' E 005°53'0 0.0
2018-Jul-15 22:00N 58°29' E 005°53'0 0.0
2018-Jul-15 21:30N 58°29' E 005°53'0 0.0
2018-Jul-15 21:00N 58°29' E 005°53'0 0.0
2018-Jul-15 20:30N 58°29' E 005°53'0 0.0
2018-Jul-15 20:00N 58°29' E 005°53'0 0.0
2018-Jul-15 19:30N 58°29' E 005°53'0 0.0
2018-Jul-15 19:00N 58°29' E 005°53'0 0.0
2018-Jul-15 18:30N 58°29' E 005°53'0 0.0
2018-Jul-15 18:00N 58°29' E 005°53'0 0.0
2018-Jul-15 17:30N 58°29' E 005°53'0 0.0
2018-Jul-15 17:00N 58°29' E 005°53'0 0.0
2018-Jul-15 16:30N 58°29' E 005°53'0 0.0
2018-Jul-15 15:59N 58°29' E 005°53'0 0.1
2018-Jul-15 15:30N 58°29' E 005°53'2 4.3
2018-Jul-15 15:00N 58°27' E 005°50'510.8
2018-Jul-15 14:30N 58°26' E 005°40'611.3
2018-Jul-15 14:00N 58°24' E 005°30'611.2
2018-Jul-15 13:29N 58°22' E 005°20'510.8
2018-Jul-15 12:59N 58°20' E 005°10'511.2
2018-Jul-15 12:30N 58°18' E 004°60'611.6
2018-Jul-15 12:00N 58°16' E 004°50'611.5
2018-Jul-15 11:30N 58°14' E 004°40'611.7
2018-Jul-15 11:00N 58°12' E 004°29'712.1
2018-Jul-15 10:27N 58°10' E 004°17'812.0
2018-Jul-15 09:48N 58°08' E 004°03'18711.7
2018-Jul-14 17:50N 56°50' W 001°14'611.7
2018-Jul-14 17:19N 56°47' W 001°24'411.5
2018-Jul-14 17:00N 56°46' W 001°30'3111.0
2018-Jul-14 14:12N 56°32' W 002°20'710.3
2018-Jul-14 13:30N 56°29' W 002°32'510.3
2018-Jul-14 13:00N 56°27' W 002°41'9 0.7
2018-Jul-14 00:44N 56°28' W 002°56'3 0.2
2018-Jul-13 09:50N 56°27' W 002°51'3 9.2
2018-Jul-13 09:30N 56°27' W 002°45'4 8.7
2018-Jul-13 09:00N 56°28' W 002°38'1 1.4
2018-Jul-13 08:30N 56°29' W 002°37'0 0.0
2018-Jul-13 08:00N 56°29' W 002°37'0 0.0
2018-Jul-13 07:30N 56°29' W 002°37'0 0.0
2018-Jul-13 07:00N 56°29' W 002°37'0 0.0
2018-Jul-13 06:30N 56°29' W 002°37'0 0.0
2018-Jul-13 05:57N 56°29' W 002°37'0 0.0
2018-Jul-13 05:30N 56°29' W 002°37'1 1.4
2018-Jul-13 05:00N 56°28' W 002°37'3 6.9
2018-Jul-13 04:30N 56°31' W 002°33'7 9.9
2018-Jul-13 03:47N 56°36' W 002°25'2411.1
2018-Jul-13 01:38N 56°57' W 002°04'111.8
2018-Jul-13 01:31N 56°59' W 002°03'611.7
2018-Jul-13 01:01N 57°04' W 001°59'611.5
2018-Jul-13 00:30N 57°09' W 001°55'611.8
2018-Jul-13 00:00N 57°15' W 001°51'612.0
2018-Jul-12 23:30N 57°21' W 001°48'612.6
2018-Jul-12 23:00N 57°27' W 001°44'612.4
2018-Jul-12 22:30N 57°33' W 001°43'6410.8
2018-Jul-12 16:31N 58°28' W 002°46'5 9.3
2018-Jul-12 16:01N 58°32' W 002°50'5 9.6
2018-Jul-12 15:31N 58°36' W 002°55'4 7.7
2018-Jul-12 15:00N 58°39' W 003°00'3 6.9
2018-Jul-12 14:30N 58°39' W 003°07'3 6.2
2018-Jul-12 13:59N 58°42' W 003°08'1 1.7
2018-Jul-12 13:30N 58°43' W 003°07'0 0.6
2018-Jul-12 13:00N 58°43' W 003°08'1 1.4
2018-Jul-12 12:30N 58°43' W 003°09'3 5.9
2018-Jul-12 12:00N 58°41' W 003°14'4 8.0
2018-Jul-12 11:30N 58°41' W 003°21'4 8.3
2018-Jul-12 11:00N 58°41' W 003°29'5510.6
2018-Jul-12 05:45N 58°31' W 005°14'  
Track history (hours):
 
Tides and Currents Weather Stations Pressure Air Temp Water Temp Dewpoint Dewpoint Depression Visibility Wind Speed Wind Dir Waves Ship Positions

Birgit G.

Last reported at 2018-Jul-21 22:59 UTC. Time now 2018-Jul-21 22:57 UTC.
Position N 51°53' E 004°16'.

Length 89 m; draft 3.5 m.

Type: Ship. MMSI: 305502000.

Date/timePositionNaut miles runAvg speedWind from/ knotsBaromVisibWave heightAir tempDewpointWater temp
2018-Jul-21 22:59N 51°53' E 004°16'0 0.0
2018-Jul-21 22:26N 51°53' E 004°16'0 0.0
2018-Jul-21 21:59N 51°53' E 004°16'0 0.0
2018-Jul-21 21:29N 51°53' E 004°16'0 0.0
2018-Jul-21 20:59N 51°53' E 004°16'0 0.0
2018-Jul-21 20:29N 51°53' E 004°16'0 0.0
2018-Jul-21 19:59N 51°53' E 004°16'0 0.0
2018-Jul-21 19:29N 51°53' E 004°16'0 0.0
2018-Jul-21 18:59N 51°53' E 004°16'0 0.0
2018-Jul-21 18:29N 51°53' E 004°16'0 0.0
2018-Jul-21 17:59N 51°53' E 004°16'0 0.0
2018-Jul-21 17:29N 51°53' E 004°16'0 0.0
2018-Jul-21 16:59N 51°53' E 004°16'0 0.0
2018-Jul-21 16:29N 51°53' E 004°16'0 0.0
2018-Jul-21 15:59N 51°53' E 004°16'0 0.0
2018-Jul-21 15:29N 51°53' E 004°16'0 0.0
2018-Jul-21 14:59N 51°53' E 004°16'0 0.0
2018-Jul-21 14:30N 51°53' E 004°16'5 5.5
2018-Jul-21 13:30N 51°51' E 004°24'510.1
2018-Jul-21 13:00N 51°50' E 004°32'4 7.9
2018-Jul-21 12:30N 51°48' E 004°38'0 0.7
2018-Jul-21 12:00N 51°48' E 004°38'0 0.0
2018-Jul-21 11:30N 51°48' E 004°38'0 0.0
2018-Jul-21 11:00N 51°48' E 004°38'0 0.0
2018-Jul-21 10:30N 51°48' E 004°38'0 0.0
2018-Jul-21 10:00N 51°48' E 004°38'0 0.0
2018-Jul-21 09:30N 51°48' E 004°38'0 0.0
2018-Jul-21 09:00N 51°48' E 004°38'0 0.0
2018-Jul-21 08:30N 51°48' E 004°38'0 0.0
2018-Jul-21 08:00N 51°48' E 004°38'0 0.0
2018-Jul-21 07:30N 51°48' E 004°38'0 0.0
2018-Jul-21 07:00N 51°48' E 004°38'0 0.0
2018-Jul-21 06:30N 51°48' E 004°38'0 0.0
2018-Jul-21 06:00N 51°48' E 004°38'0 0.0
2018-Jul-21 05:30N 51°48' E 004°38'0 0.0
2018-Jul-21 05:00N 51°48' E 004°38'0 0.0
2018-Jul-21 04:30N 51°48' E 004°38'0 0.0
2018-Jul-21 04:00N 51°48' E 004°38'0 0.0
2018-Jul-21 03:30N 51°48' E 004°38'0 0.0
2018-Jul-21 03:00N 51°48' E 004°38'0 0.0
2018-Jul-21 02:30N 51°48' E 004°38'0 0.0
2018-Jul-21 02:00N 51°48' E 004°38'0 0.0
2018-Jul-21 01:30N 51°48' E 004°38'2 3.1
2018-Jul-21 01:00N 51°48' E 004°36'4 7.8
2018-Jul-21 00:30N 51°50' E 004°30'4 8.9
2018-Jul-21 00:00N 51°50' E 004°23'4 8.4
2018-Jul-20 23:30N 51°54' E 004°19'4 8.9
2018-Jul-20 23:00N 51°56' E 004°13'5 9.6
2018-Jul-20 22:30N 51°59' E 004°06'5 9.7
2018-Jul-20 22:00N 51°60' E 003°59'510.7
2018-Jul-20 21:30N 52°01' E 003°50'4 8.2
2018-Jul-20 21:00N 52°05' E 003°47'4 9.0
2018-Jul-20 20:30N 52°09' E 003°45'1 1.8
2018-Jul-20 19:58N 52°10' E 003°44'0 0.0
2018-Jul-20 19:28N 52°10' E 003°44'0 0.1
2018-Jul-20 18:58N 52°10' E 003°44'0 0.2
2018-Jul-20 18:28N 52°10' E 003°44'0 0.1
2018-Jul-20 17:58N 52°10' E 003°44'0 0.0
2018-Jul-20 17:28N 52°10' E 003°44'0 0.0
2018-Jul-20 16:58N 52°10' E 003°44'0 0.0
2018-Jul-20 16:22N 52°10' E 003°44'0 0.0
2018-Jul-20 15:55N 52°10' E 003°44'0 0.0
2018-Jul-20 15:25N 52°10' E 003°44'0 0.6
2018-Jul-20 15:00N 52°10' E 003°44'5 9.6
2018-Jul-20 14:30N 52°15' E 003°46'611.4
2018-Jul-20 14:00N 52°21' E 003°48'611.3
2018-Jul-20 13:30N 52°26' E 003°50'510.9
2018-Jul-20 13:00N 52°31' E 003°52'510.7
2018-Jul-20 12:30N 52°37' E 003°54'510.2
2018-Jul-20 12:00N 52°42' E 003°55'5 9.9
2018-Jul-20 11:30N 52°46' E 003°57'5 9.6
2018-Jul-20 11:00N 52°51' E 003°58'5 9.2
2018-Jul-20 10:30N 52°56' E 003°59'5 8.9
2018-Jul-20 09:59N 52°59' E 004°05'5 9.0
2018-Jul-20 09:28N 53°02' E 004°11'5 8.8
2018-Jul-20 08:55N 53°05' E 004°17'4 9.2
2018-Jul-20 08:30N 53°08' E 004°21'5 9.3
2018-Jul-20 08:00N 53°11' E 004°27'610.0
2018-Jul-20 07:22N 53°17' E 004°30'510.6
2018-Jul-20 06:51N 53°22' E 004°33'410.9
2018-Jul-20 06:30N 53°26' E 004°36'610.7
2018-Jul-20 05:58N 53°29' E 004°44'511.3
2018-Jul-20 05:30N 53°31' E 004°52'611.3
2018-Jul-20 04:59N 53°33' E 005°02'511.1
2018-Jul-20 04:30N 53°35' E 005°10'611.2
2018-Jul-20 04:00N 53°37' E 005°19'510.8
2018-Jul-20 03:30N 53°39' E 005°28'510.2
2018-Jul-20 02:59N 53°40' E 005°36'510.0
2018-Jul-20 02:30N 53°42' E 005°43'5 9.7
2018-Jul-20 02:00N 53°44' E 005°51'5 9.5
2018-Jul-20 01:28N 53°45' E 005°59'15 9.5
2018-Jul-19 23:53N 53°50' E 006°23'4 9.1
2018-Jul-19 23:28N 53°50' E 006°30'510.0
2018-Jul-19 22:57N 53°52' E 006°38'1310.9
2018-Jul-19 21:44N 53°55' E 006°60'1511.5
2018-Jul-19 20:25N 53°59' E 007°25'511.8
2018-Jul-19 20:00N 53°60' E 007°33'611.7
2018-Jul-19 19:30N 54°01' E 007°42'611.7
2018-Jul-19 18:59N 54°01' E 007°53'611.9
2018-Jul-19 18:30N 54°01' E 008°03'611.8
2018-Jul-19 18:00N 54°01' E 008°13'611.7
2018-Jul-19 17:30N 53°60' E 008°22'510.9
2018-Jul-19 17:00N 53°58' E 008°31'5 9.4
2018-Jul-19 16:31N 53°57' E 008°39'4 8.2
2018-Jul-19 16:00N 53°53' E 008°43'4 7.9
2018-Jul-19 15:30N 53°51' E 008°47'4 7.7
2018-Jul-19 15:00N 53°51' E 008°54'4 7.7
2018-Jul-19 14:30N 53°51' E 009°00'9 9.1
2018-Jul-19 13:30N 53°53' E 009°16'611.3
2018-Jul-19 13:00N 53°49' E 009°22'612.0
2018-Jul-19 12:30N 53°43' E 009°28'5 9.1
2018-Jul-19 12:00N 53°39' E 009°31'0 0.0
2018-Jul-19 11:30N 53°39' E 009°31'0 0.0
2018-Jul-19 11:00N 53°39' E 009°31'0 0.0
2018-Jul-19 10:26N 53°39' E 009°31'0 0.0
2018-Jul-19 09:56N 53°39' E 009°31'0 0.0
2018-Jul-19 09:30N 53°39' E 009°31'0 0.0
2018-Jul-19 08:59N 53°39' E 009°31'0 0.0
2018-Jul-19 08:30N 53°39' E 009°31'0 0.0
2018-Jul-19 07:56N 53°39' E 009°31'0 0.0
2018-Jul-19 07:26N 53°39' E 009°31'0 0.0
2018-Jul-19 06:56N 53°39' E 009°31'0 0.0
2018-Jul-19 06:30N 53°39' E 009°31'0 0.0
2018-Jul-19 05:59N 53°39' E 009°31'0 0.0
2018-Jul-19 05:29N 53°39' E 009°31'0 0.0
2018-Jul-19 04:59N 53°39' E 009°31'0 0.0
2018-Jul-19 04:29N 53°39' E 009°31'0 0.0
2018-Jul-19 03:59N 53°39' E 009°31'0 0.0
2018-Jul-19 03:29N 53°39' E 009°31'0 0.0
2018-Jul-19 02:56N 53°39' E 009°31'0 0.0
2018-Jul-19 02:29N 53°39' E 009°31'0 0.0
2018-Jul-19 01:59N 53°39' E 009°31'0 0.0
2018-Jul-19 01:29N 53°39' E 009°31'0 0.0
2018-Jul-19 00:59N 53°39' E 009°31'0 0.0
2018-Jul-19 00:29N 53°39' E 009°31'0 0.0
2018-Jul-19 00:00N 53°39' E 009°31'0 0.0
2018-Jul-18 23:28N 53°39' E 009°31'0 0.7
2018-Jul-18 23:00N 53°40' E 009°31'3 6.0
2018-Jul-18 22:30N 53°42' E 009°29'5 9.1
2018-Jul-18 22:00N 53°46' E 009°24'4 8.7
2018-Jul-18 21:30N 53°50' E 009°21'4 8.4
2018-Jul-18 21:00N 53°52' E 009°15'3 5.7
2018-Jul-18 20:31N 53°53' E 009°11'0 0.0
2018-Jul-18 19:58N 53°53' E 009°11'0 0.0
2018-Jul-18 19:28N 53°53' E 009°11'0 0.0
2018-Jul-18 18:58N 53°53' E 009°11'0 0.0
2018-Jul-18 18:28N 53°53' E 009°11'0 0.0
2018-Jul-18 17:58N 53°53' E 009°11'0 0.0
2018-Jul-18 17:28N 53°53' E 009°11'0 0.0
2018-Jul-18 16:58N 53°53' E 009°11'0 0.0
2018-Jul-18 16:28N 53°53' E 009°11'0 0.0
2018-Jul-18 15:58N 53°53' E 009°11'0 0.0
2018-Jul-18 15:28N 53°53' E 009°11'0 0.0
2018-Jul-18 14:58N 53°53' E 009°11'0 0.0
2018-Jul-18 14:28N 53°53' E 009°11'0 0.0
2018-Jul-18 13:19N 53°53' E 009°11'0 0.0
2018-Jul-18 12:58N 53°53' E 009°11'0 0.0
2018-Jul-18 12:28N 53°53' E 009°11'0 0.0
2018-Jul-18 11:58N 53°53' E 009°11'0 0.0
2018-Jul-18 11:28N 53°53' E 009°11'0 0.0
2018-Jul-18 10:28N 53°53' E 009°11'0 0.0
2018-Jul-18 09:58N 53°53' E 009°11'0 0.0
2018-Jul-18 09:28N 53°53' E 009°11'0 0.0
2018-Jul-18 08:58N 53°53' E 009°11'0 0.0
2018-Jul-18 08:28N 53°53' E 009°11'0 0.0
2018-Jul-18 07:58N 53°53' E 009°11'0 0.0
2018-Jul-18 07:28N 53°53' E 009°11'0 0.0
2018-Jul-18 06:58N 53°53' E 009°11'0 0.0
2018-Jul-18 06:22N 53°53' E 009°11'0 0.0
2018-Jul-18 05:58N 53°53' E 009°11'0 0.0
2018-Jul-18 05:28N 53°53' E 009°11'0 0.0
2018-Jul-18 04:58N 53°53' E 009°11'0 0.0
2018-Jul-18 04:28N 53°53' E 009°11'0 0.0
2018-Jul-18 03:58N 53°53' E 009°11'0 0.0
2018-Jul-18 03:28N 53°53' E 009°11'0 0.5
2018-Jul-18 03:00N 53°53' E 009°11'2 2.9
2018-Jul-18 02:29N 53°53' E 009°09'0 0.0
2018-Jul-18 01:59N 53°53' E 009°09'0 0.0
2018-Jul-18 01:29N 53°53' E 009°09'0 0.0
2018-Jul-18 00:59N 53°53' E 009°09'0 0.2
2018-Jul-18 00:29N 53°53' E 009°08'0 0.1
2018-Jul-17 23:59N 53°53' E 009°08'0 0.0
2018-Jul-17 23:29N 53°53' E 009°08'0 0.0
2018-Jul-17 22:59N 53°53' E 009°08'0 0.0
2018-Jul-17 22:29N 53°53' E 009°08'0 0.0
2018-Jul-17 21:59N 53°53' E 009°08'0 0.0
2018-Jul-17 21:29N 53°53' E 009°08'0 0.1
2018-Jul-17 20:59N 53°53' E 009°08'0 0.1
2018-Jul-17 20:29N 53°53' E 009°08'0 0.1
2018-Jul-17 19:59N 53°53' E 009°08'0 0.0
2018-Jul-17 19:29N 53°53' E 009°08'0 0.0
2018-Jul-17 18:59N 53°53' E 009°08'0 0.1
2018-Jul-17 18:29N 53°53' E 009°08'2 3.4
2018-Jul-17 18:01N 53°52' E 009°06'5 9.4
2018-Jul-17 17:31N 53°51' E 008°58'510.1
2018-Jul-17 17:00N 53°50' E 008°50'5 9.5
2018-Jul-17 16:31N 53°53' E 008°43'5 9.2
2018-Jul-17 16:00N 53°57' E 008°38'5 9.5
2018-Jul-17 15:30N 53°58' E 008°31'5 9.9
2018-Jul-17 14:59N 53°59' E 008°22'5 9.9
2018-Jul-17 14:30N 53°59' E 008°14'510.0
2018-Jul-17 13:59N 53°59' E 008°06'510.3
2018-Jul-17 13:30N 54°02' E 007°58'510.5
2018-Jul-17 13:00N 54°04' E 007°51'610.8
2018-Jul-17 12:28N 54°06' E 007°42'198 9.4
2018-Jul-16 15:23N 57°19' E 006°21'411.1
2018-Jul-16 14:58N 57°24' E 006°18'1410.6
2018-Jul-16 13:39N 57°37' E 006°11'3 9.8
2018-Jul-16 13:18N 57°40' E 006°10'410.0
2018-Jul-16 12:52N 57°45' E 006°09'410.4
2018-Jul-16 12:30N 57°48' E 006°07'510.3
2018-Jul-16 12:00N 57°53' E 006°05'510.1
2018-Jul-16 11:30N 57°58' E 006°03'510.5
2018-Jul-16 11:00N 58°03' E 006°02'510.4
2018-Jul-16 10:31N 58°08' E 006°00'510.2
2018-Jul-16 10:00N 58°13' E 005°58'510.1
2018-Jul-16 09:30N 58°18' E 005°57'5 9.9
2018-Jul-16 09:00N 58°23' E 005°55'4 8.6
2018-Jul-16 08:30N 58°27' E 005°51'2 3.5
2018-Jul-16 08:00N 58°29' E 005°53'0 0.0
2018-Jul-16 07:29N 58°29' E 005°53'0 0.0
2018-Jul-16 07:00N 58°29' E 005°53'0 0.0
2018-Jul-16 06:30N 58°29' E 005°53'0 0.0
2018-Jul-16 06:00N 58°29' E 005°53'0 0.0
2018-Jul-16 05:30N 58°29' E 005°53'0 0.0
2018-Jul-16 05:00N 58°29' E 005°53'0 0.0
2018-Jul-16 04:30N 58°29' E 005°53'0 0.0
2018-Jul-16 04:00N 58°29' E 005°53'0 0.0
2018-Jul-16 03:27N 58°29' E 005°53'0 0.0
2018-Jul-16 03:00N 58°29' E 005°53'0 0.0
2018-Jul-16 02:30N 58°29' E 005°53'0 0.0
2018-Jul-16 02:00N 58°29' E 005°53'0 0.0
2018-Jul-16 01:30N 58°29' E 005°53'0 0.0
2018-Jul-16 01:00N 58°29' E 005°53'0 0.0
2018-Jul-16 00:27N 58°29' E 005°53'0 0.0
2018-Jul-16 00:00N 58°29' E 005°53'0 0.0
2018-Jul-15 23:27N 58°29' E 005°53'0 0.0
2018-Jul-15 22:57N 58°29' E 005°53'0 0.0
2018-Jul-15 22:30N 58°29' E 005°53'0 0.0
2018-Jul-15 22:00N 58°29' E 005°53'0 0.0
2018-Jul-15 21:30N 58°29' E 005°53'0 0.0
2018-Jul-15 21:00N 58°29' E 005°53'0 0.0
2018-Jul-15 20:30N 58°29' E 005°53'0 0.0
2018-Jul-15 20:00N 58°29' E 005°53'0 0.0
2018-Jul-15 19:30N 58°29' E 005°53'0 0.0
2018-Jul-15 19:00N 58°29' E 005°53'0 0.0
2018-Jul-15 18:30N 58°29' E 005°53'0 0.0
2018-Jul-15 18:00N 58°29' E 005°53'0 0.0
2018-Jul-15 17:30N 58°29' E 005°53'0 0.0
2018-Jul-15 17:00N 58°29' E 005°53'0 0.0
2018-Jul-15 16:30N 58°29' E 005°53'0 0.0
2018-Jul-15 15:59N 58°29' E 005°53'0 0.1
2018-Jul-15 15:30N 58°29' E 005°53'2 4.3
2018-Jul-15 15:00N 58°27' E 005°50'510.8
2018-Jul-15 14:30N 58°26' E 005°40'611.3
2018-Jul-15 14:00N 58°24' E 005°30'611.2
2018-Jul-15 13:29N 58°22' E 005°20'510.8
2018-Jul-15 12:59N 58°20' E 005°10'511.2
2018-Jul-15 12:30N 58°18' E 004°60'611.6
2018-Jul-15 12:00N 58°16' E 004°50'611.5
2018-Jul-15 11:30N 58°14' E 004°40'611.7
2018-Jul-15 11:00N 58°12' E 004°29'712.1
2018-Jul-15 10:27N 58°10' E 004°17'812.0
2018-Jul-15 09:48N 58°08' E 004°03'18711.7
2018-Jul-14 17:50N 56°50' W 001°14'611.7
2018-Jul-14 17:19N 56°47' W 001°24'411.5
2018-Jul-14 17:00N 56°46' W 001°30'3111.0
2018-Jul-14 14:12N 56°32' W 002°20'710.3
2018-Jul-14 13:30N 56°29' W 002°32'510.3
2018-Jul-14 13:00N 56°27' W 002°41'9 0.7
2018-Jul-14 00:44N 56°28' W 002°56'3 0.2
2018-Jul-13 09:50N 56°27' W 002°51'3 9.2
2018-Jul-13 09:30N 56°27' W 002°45'4 8.7
2018-Jul-13 09:00N 56°28' W 002°38'1 1.4
2018-Jul-13 08:30N 56°29' W 002°37'0 0.0
2018-Jul-13 08:00N 56°29' W 002°37'0 0.0
2018-Jul-13 07:30N 56°29' W 002°37'0 0.0
2018-Jul-13 07:00N 56°29' W 002°37'0 0.0
2018-Jul-13 06:30N 56°29' W 002°37'0 0.0
2018-Jul-13 05:57N 56°29' W 002°37'0 0.0
2018-Jul-13 05:30N 56°29' W 002°37'1 1.4
2018-Jul-13 05:00N 56°28' W 002°37'3 6.9
2018-Jul-13 04:30N 56°31' W 002°33'7 9.9
2018-Jul-13 03:47N 56°36' W 002°25'2411.1
2018-Jul-13 01:38N 56°57' W 002°04'111.8
2018-Jul-13 01:31N 56°59' W 002°03'611.7
2018-Jul-13 01:01N 57°04' W 001°59'611.5
2018-Jul-13 00:30N 57°09' W 001°55'611.8
2018-Jul-13 00:00N 57°15' W 001°51'612.0
2018-Jul-12 23:30N 57°21' W 001°48'612.6
2018-Jul-12 23:00N 57°27' W 001°44'612.4
2018-Jul-12 22:30N 57°33' W 001°43'6410.8
2018-Jul-12 16:31N 58°28' W 002°46'5 9.3
2018-Jul-12 16:01N 58°32' W 002°50'5 9.6
2018-Jul-12 15:31N 58°36' W 002°55'4 7.7
2018-Jul-12 15:00N 58°39' W 003°00'3 6.9
2018-Jul-12 14:30N 58°39' W 003°07'3 6.2
2018-Jul-12 13:59N 58°42' W 003°08'1 1.7
2018-Jul-12 13:30N 58°43' W 003°07'0 0.6
2018-Jul-12 13:00N 58°43' W 003°08'1 1.4
2018-Jul-12 12:30N 58°43' W 003°09'3 5.9
2018-Jul-12 12:00N 58°41' W 003°14'4 8.0
2018-Jul-12 11:30N 58°41' W 003°21'4 8.3
2018-Jul-12 11:00N 58°41' W 003°29'5510.6
2018-Jul-12 05:45N 58°31' W 005°14'  

Dump ship's entire track history